This is the latest recevied weather packets stored in our database for station/object TG8AKV-17. If no packets are shown the sender has not sent any weather packets the latest 10 day(s).
| Time | Temp. | Humidity | Pressure | Rain* | Wind** | Luminosity | Snow |
|---|---|---|---|---|---|---|---|
| 1777767368 | 16.67° C | 89% | 1014 hPa | 0 mm | - | - | - |
| 1777766167 | 16.67° C | 90% | 1014 hPa | 0 mm | - | - | - |
| 1777764966 | 17.22° C | 89% | 1014 hPa | 0 mm | - | - | - |
| 1777761362 | 21.11° C | 68% | 1013 hPa | 0 mm | - | - | - |
| 1777760761 | 21.11° C | 71% | 1013 hPa | 0 mm | - | - | - |
| 1777760160 | 21.11° C | 71% | 1013 hPa | 0 mm | - | - | - |
| 1777759560 | 21.11° C | 71% | 1013 hPa | 0 mm | - | - | - |
| 1777758959 | 21.11° C | 71% | 1013 hPa | 0 mm | - | - | - |
| 1777758359 | 22.78° C | 61% | 1013 hPa | 0 mm | - | - | - |
| 1777757758 | 23.33° C | 52% | 1013 hPa | 0 mm | - | - | - |
| 1777757157 | 23.33° C | 50% | 1012 hPa | 0 mm | - | - | - |
| 1777756557 | 23.33° C | 49% | 1012 hPa | 0 mm | - | - | - |
| 1777755956 | 23.89° C | 46% | 1012 hPa | 0 mm | - | - | - |
| 1777755355 | 23.89° C | 41% | 1013 hPa | 0 mm | - | - | - |
| 1777754755 | 23.89° C | 41% | 1013 hPa | 0 mm | - | - | - |
| 1777754154 | 23.89° C | 41% | 1013 hPa | 0 mm | - | - | - |
| 1777753554 | 23.89° C | 41% | 1013 hPa | 0 mm | - | - | - |
| 1777752953 | 23.89° C | 41% | 1013 hPa | 0 mm | - | - | - |
| 1777752352 | 23.89° C | 40% | 1013 hPa | 0 mm | - | - | - |
| 1777751752 | 25° C | 38% | 1013 hPa | 0 mm | - | - | - |
| 1777751151 | 25° C | 46% | 1013 hPa | 0 mm | - | - | - |
| 1777749950 | 25° C | 45% | 1014 hPa | 0 mm | - | - | - |
| 1777749349 | 25° C | 43% | 1014 hPa | 0 mm | - | - | - |
| 1777748748 | 25° C | 39% | 1014 hPa | 0 mm | - | - | - |
| 1777748148 | 25° C | 41% | 1014 hPa | 0 mm | - | - | - |
* Rain latest hour (hover to see other rain measurements)
** Current wind speed in m/s (hover to see current wind gust speed)